Time;durP1;ratioP1;P1;durP2;ratioP2;P2;SDS_P1;SDS_P2;PMS_P1;PMS_P2;Temp;Humidity;BMP_temperature;BMP_pressure;BME280_temperature;BME280_humidity;BME280_pressure;Samples;Min_cycle;Max_cycle;Signal;HPM_P1;HPM_P2
2022/08/07 00:00:39;;;;;;;1.27;1.00;;;13.10;1.00;;;;;;4934654;29;20138;-86
2022/08/07 00:03:27;;;;;;;3.13;0.98;;;13.10;1.00;;;;;;4939244;29;20134;-85
2022/08/07 00:06:25;;;;;;;4.07;1.20;;;13.10;1.00;;;;;;4939243;29;20469;-84
2022/08/07 00:09:21;;;;;;;2.17;0.98;;;13.30;1.00;;;;;;4944619;29;20051;-86
2022/08/07 00:12:19;;;;;;;3.15;0.85;;;13.50;1.00;;;;;;4931743;29;20556;-85
2022/08/07 00:15:06;;;;;;;3.67;1.10;;;13.60;1.00;;;;;;4935076;29;20115;-85
2022/08/07 00:17:54;;;;;;;3.80;1.05;;;13.80;1.00;;;;;;4937004;29;20378;-85
2022/08/07 00:20:42;;;;;;;5.75;1.02;;;13.80;1.00;;;;;;4931475;29;20043;-85
2022/08/07 00:23:31;;;;;;;1.67;1.20;;;13.80;1.00;;;;;;4936190;29;20130;-84
2022/08/07 00:26:21;;;;;;;4.90;1.05;;;13.70;1.00;;;;;;4936885;29;20087;-84
2022/08/07 00:29:28;;;;;;;2.00;0.90;;;13.70;1.00;;;;;;4939559;29;20195;-85
2022/08/07 00:32:18;;;;;;;3.05;1.17;;;13.60;1.00;;;;;;4936020;29;20449;-84
2022/08/07 00:35:17;;;;;;;4.10;1.10;;;13.50;1.00;;;;;;4931468;29;20339;-85
2022/08/07 00:38:09;;;;;;;4.05;1.00;;;13.50;1.00;;;;;;4933241;29;20476;-85
2022/08/07 00:40:59;;;;;;;1.83;0.90;;;13.50;1.00;;;;;;4929382;29;20044;-86
2022/08/07 00:43:47;;;;;;;3.33;1.38;;;13.40;1.00;;;;;;4934265;29;20099;-86
2022/08/07 00:46:51;;;;;;;2.92;1.00;;;13.30;1.00;;;;;;4936063;29;20047;-83
2022/08/07 00:49:38;;;;;;;1.98;1.45;;;13.10;1.00;;;;;;4937409;29;20052;-83
2022/08/07 00:52:50;;;;;;;3.60;1.30;;;13.10;1.00;;;;;;4937978;29;20324;-83
2022/08/07 00:55:39;;;;;;;2.80;1.15;;;12.90;1.00;;;;;;4929419;29;20394;-84
2022/08/07 00:58:46;;;;;;;2.83;1.20;;;12.90;1.00;;;;;;4935686;29;20078;-84
2022/08/07 01:01:36;;;;;;;4.25;1.30;;;13.00;1.00;;;;;;4933343;29;20111;-84
2022/08/07 01:04:35;;;;;;;8.68;1.42;;;13.00;1.00;;;;;;4931400;29;20051;-83
2022/08/07 01:07:29;;;;;;;1.15;1.05;;;12.90;1.00;;;;;;4936022;29;20454;-83
2022/08/07 01:10:20;;;;;;;3.55;1.23;;;12.90;1.00;;;;;;4931317;29;20044;-83
2022/08/07 01:13:07;;;;;;;1.90;1.20;;;12.80;1.00;;;;;;4926444;29;20099;-84
2022/08/07 01:15:57;;;;;;;1.92;1.13;;;12.80;1.00;;;;;;4937557;29;20043;-83
2022/08/07 01:18:52;;;;;;;2.30;1.02;;;12.70;1.00;;;;;;4923073;29;20382;-84
2022/08/07 01:21:41;;;;;;;2.75;1.27;;;12.70;1.00;;;;;;4929357;29;20047;-84
2022/08/07 01:24:32;;;;;;;0.88;0.88;;;12.50;1.00;;;;;;4936020;29;20123;-83
2022/08/07 01:27:19;;;;;;;3.25;1.17;;;12.40;1.00;;;;;;4920372;29;20048;-84
2022/08/07 01:30:09;;;;;;;3.72;1.50;;;12.30;1.00;;;;;;4923221;29;20040;-82
2022/08/07 01:33:00;;;;;;;1.83;1.10;;;12.20;1.00;;;;;;4935295;29;20048;-84
2022/08/07 01:35:48;;;;;;;2.55;1.40;;;12.10;1.00;;;;;;4933442;29;20052;-84
2022/08/07 01:38:52;;;;;;;1.10;1.02;;;12.10;1.00;;;;;;4933236;29;20134;-85
2022/08/07 01:41:42;;;;;;;2.40;1.60;;;12.30;1.00;;;;;;4935609;29;20119;-84
2022/08/07 01:44:49;;;;;;;2.55;1.35;;;12.30;1.00;;;;;;4935411;29;20052;-83
2022/08/07 01:47:36;;;;;;;2.03;1.20;;;12.30;1.00;;;;;;4934433;29;20088;-84
2022/08/07 01:50:56;;;;;;;3.72;1.20;;;12.30;1.00;;;;;;4931285;29;20051;-85
2022/08/07 01:53:51;;;;;;;2.00;1.30;;;12.20;1.00;;;;;;4938717;29;20048;-83
2022/08/07 01:57:03;;;;;;;1.70;1.10;;;12.10;1.00;;;;;;4929792;29;20083;-84
2022/08/07 02:00:11;;;;;;;1.90;1.30;;;12.00;1.00;;;;;;4934846;29;20501;-85
2022/08/07 02:03:06;;;;;;;1.30;1.20;;;12.00;1.00;;;;;;4944044;29;20457;-84
2022/08/07 02:06:13;;;;;;;2.95;1.20;;;11.90;1.00;;;;;;4937939;29;20059;-84
2022/08/07 02:09:20;;;;;;;2.95;1.52;;;11.90;1.00;;;;;;4935098;29;20051;-84
2022/08/07 02:12:34;;;;;;;1.25;1.15;;;11.80;1.00;;;;;;4938724;29;20058;-83
2022/08/07 02:15:26;;;;;;;4.00;1.38;;;11.90;1.00;;;;;;4938732;29;20446;-84
2022/08/07 02:18:14;;;;;;;1.58;1.30;;;11.80;1.00;;;;;;4931051;29;20039;-84
2022/08/07 02:21:06;;;;;;;2.75;1.30;;;11.80;1.00;;;;;;4936162;29;20642;-85
2022/08/07 02:24:04;;;;;;;1.35;1.25;;;11.70;1.00;;;;;;4933293;29;20553;-84
2022/08/07 02:26:52;;;;;;;4.13;1.20;;;11.80;1.00;;;;;;4938199;29;20078;-84
2022/08/07 02:29:43;;;;;;;5.95;1.65;;;11.80;1.00;;;;;;4928171;29;20083;-84
2022/08/07 02:32:42;;;;;;;1.83;1.40;;;11.90;1.00;;;;;;4940880;29;20052;-83
2022/08/07 02:35:52;;;;;;;3.25;1.30;;;12.00;1.00;;;;;;4929242;29;20127;-84
2022/08/07 02:39:03;;;;;;;4.10;1.30;;;12.00;1.00;;;;;;4937793;29;20075;-83
2022/08/07 02:42:06;;;;;;;1.85;1.65;;;12.10;1.00;;;;;;4929927;29;20347;-82
2022/08/07 02:45:03;;;;;;;6.15;1.63;;;12.00;1.00;;;;;;4933116;29;20524;-85
2022/08/07 02:48:12;;;;;;;1.85;1.48;;;11.90;1.00;;;;;;4934920;29;20513;-84
2022/08/07 02:51:06;;;;;;;3.75;1.20;;;11.90;1.00;;;;;;4951134;29;20048;-83
2022/08/07 02:54:15;;;;;;;3.50;1.50;;;11.80;1.00;;;;;;4945582;29;20090;-83
2022/08/07 02:57:03;;;;;;;4.72;1.20;;;11.70;1.00;;;;;;4937169;29;20078;-84
2022/08/07 02:59:53;;;;;;;1.75;1.27;;;11.70;1.00;;;;;;4949907;29;20036;-78
2022/08/07 03:02:51;;;;;;;6.03;1.58;;;11.70;1.00;;;;;;4952859;28;20099;-80
2022/08/07 03:05:42;;;;;;;3.63;1.75;;;11.70;1.00;;;;;;4939031;28;20528;-83
2022/08/07 03:08:34;;;;;;;1.98;1.30;;;11.80;1.00;;;;;;4952183;29;20055;-84
2022/08/07 03:11:21;;;;;;;2.88;1.40;;;11.70;1.00;;;;;;4947557;29;20052;-83
2022/08/07 03:14:15;;;;;;;3.10;1.23;;;11.70;1.00;;;;;;4937671;29;20525;-84
2022/08/07 03:17:05;;;;;;;1.73;1.20;;;11.70;1.00;;;;;;4944142;29;20079;-84
2022/08/07 03:19:55;;;;;;;3.20;1.52;;;11.60;1.00;;;;;;4940537;29;20075;-83
2022/08/07 03:22:43;;;;;;;2.55;1.50;;;11.60;1.00;;;;;;4941888;29;20051;-84
2022/08/07 03:25:42;;;;;;;4.85;1.48;;;11.50;1.00;;;;;;4948960;29;20055;-83
2022/08/07 03:28:29;;;;;;;;;;;11.50;1.00;;;;;;4936557;29;20195;-83
2022/08/07 03:31:26;;;;;;;2.40;1.40;;;11.60;1.00;;;;;;4927853;29;19926;-83
2022/08/07 03:34:31;;;;;;;2.72;1.40;;;11.60;1.00;;;;;;4935020;29;20059;-82
2022/08/07 03:37:30;;;;;;;2.88;1.40;;;11.60;1.00;;;;;;4930930;29;20051;-83
2022/08/07 03:40:22;;;;;;;4.47;1.63;;;11.60;1.00;;;;;;4934296;29;20975;-83
2022/08/07 03:43:16;;;;;;;3.30;1.42;;;11.70;1.00;;;;;;4938026;29;20409;-84
2022/08/07 03:46:05;;;;;;;4.05;1.70;;;11.70;1.00;;;;;;4937036;29;20125;-84
2022/08/07 03:49:08;;;;;;;2.38;1.63;;;11.70;1.00;;;;;;4936461;29;20059;-84
2022/08/07 03:51:57;;;;;;;5.72;1.60;;;11.70;1.00;;;;;;4935150;29;20055;-84
2022/08/07 03:54:48;;;;;;;2.05;1.50;;;11.70;1.00;;;;;;4936866;29;20118;-84
2022/08/07 03:57:44;;;;;;;2.67;1.80;;;11.70;1.00;;;;;;4937108;29;20130;-84
2022/08/07 04:00:55;;;;;;;1.75;1.50;;;11.70;1.00;;;;;;4929622;29;20130;-82
2022/08/07 04:03:51;;;;;;;1.42;1.33;;;11.70;1.00;;;;;;4929686;29;20066;-84
2022/08/07 04:06:43;;;;;;;1.98;1.40;;;11.70;1.00;;;;;;4933339;29;20501;-84
2022/08/07 04:09:33;;;;;;;5.60;1.50;;;11.70;1.00;;;;;;4926693;29;20115;-84
2022/08/07 04:12:36;;;;;;;2.38;1.60;;;11.70;1.00;;;;;;4926040;29;20087;-83
2022/08/07 04:15:23;;;;;;;2.55;1.40;;;11.70;1.00;;;;;;4936033;29;20078;-84
2022/08/07 04:18:14;;;;;;;5.60;1.67;;;11.60;1.00;;;;;;4926709;29;20386;-84
2022/08/07 04:21:21;;;;;;;3.85;1.50;;;11.60;1.00;;;;;;4942462;29;20186;-84
2022/08/07 04:24:11;;;;;;;4.00;1.63;;;11.70;1.00;;;;;;4947244;29;20044;-83
2022/08/07 04:27:18;;;;;;;2.67;1.77;;;11.60;1.00;;;;;;4936151;29;20127;-84
2022/08/07 04:30:24;;;;;;;3.60;1.50;;;11.70;1.00;;;;;;4936718;29;20428;-84
2022/08/07 04:33:33;;;;;;;1.80;1.70;;;11.70;1.00;;;;;;4929977;29;20046;-85
2022/08/07 04:36:21;;;;;;;1.88;1.67;;;11.80;1.00;;;;;;4935461;29;20138;-84
2022/08/07 04:39:12;;;;;;;3.65;1.60;;;11.90;1.00;;;;;;4931805;29;20048;-84
2022/08/07 04:42:06;;;;;;;3.47;1.63;;;12.00;1.00;;;;;;4927812;29;20051;-85
2022/08/07 04:44:58;;;;;;;1.70;1.60;;;12.10;1.00;;;;;;4936819;29;20048;-84
2022/08/07 04:48:09;;;;;;;2.30;1.63;;;12.10;1.00;;;;;;4932513;29;20512;-84
2022/08/07 04:51:20;;;;;;;3.08;1.50;;;12.10;1.00;;;;;;4933425;29;20138;-84
2022/08/07 04:54:56;;;;;;;3.63;1.80;;;12.10;1.00;;;;;;4931008;29;20055;-86
2022/08/07 04:57:57;;;;;;;3.67;1.75;;;12.20;1.00;;;;;;4937264;29;20059;-86
2022/08/07 05:01:23;;;;;;;2.58;1.60;;;12.30;1.00;;;;;;4937360;29;20058;-87
2022/08/07 05:04:41;;;;;;;1.88;1.67;;;12.40;1.00;;;;;;4932296;29;20204;-85
2022/08/07 05:07:45;;;;;;;2.90;1.92;;;12.50;1.00;;;;;;4938030;29;20052;-87
2022/08/07 05:10:56;;;;;;;2.90;1.60;;;12.60;1.00;;;;;;4937322;29;20393;-84
2022/08/07 05:13:58;;;;;;;2.08;1.73;;;12.70;1.00;;;;;;4928146;29;20381;-84
2022/08/07 05:17:11;;;;;;;3.78;1.65;;;12.80;1.00;;;;;;4932994;29;20110;-84
2022/08/07 05:20:04;;;;;;;2.08;1.63;;;12.90;1.00;;;;;;4932745;29;20072;-84
2022/08/07 05:22:59;;;;;;;2.67;1.52;;;13.10;1.00;;;;;;4935852;29;20051;-83
2022/08/07 05:25:49;;;;;;;2.70;1.97;;;13.30;1.00;;;;;;4936496;29;20043;-82
2022/08/07 05:29:00;;;;;;;4.35;1.50;;;13.40;1.00;;;;;;4933869;29;20049;-84
2022/08/07 05:31:51;;;;;;;2.50;1.50;;;13.50;1.00;;;;;;4943679;29;20048;-83
2022/08/07 05:34:40;;;;;;;2.05;1.77;;;13.60;1.00;;;;;;4939202;29;20051;-83
2022/08/07 05:37:29;;;;;;;3.22;1.80;;;13.60;1.00;;;;;;4935186;29;20063;-83
2022/08/07 05:40:27;;;;;;;3.58;1.83;;;13.70;1.00;;;;;;4935922;29;20434;-83
2022/08/07 05:43:15;;;;;;;5.55;1.80;;;13.80;1.00;;;;;;4933283;29;20071;-83
2022/08/07 05:46:04;;;;;;;2.05;1.73;;;14.00;1.00;;;;;;4940414;28;20051;-83
2022/08/07 05:48:54;;;;;;;2.88;2.10;;;14.00;1.00;;;;;;4939875;29;20490;-83
2022/08/07 05:51:45;;;;;;;3.67;2.20;;;14.10;1.00;;;;;;4939423;29;20048;-84
2022/08/07 05:54:33;;;;;;;5.43;2.58;;;14.20;1.00;;;;;;4938709;29;20054;-84
2022/08/07 05:57:41;;;;;;;4.25;2.58;;;14.40;1.00;;;;;;4939542;29;20134;-83
2022/08/07 06:00:35;;;;;;;2.55;1.83;;;14.50;1.00;;;;;;4929649;29;20054;-82
2022/08/07 06:03:25;;;;;;;3.45;2.42;;;14.50;1.00;;;;;;4939176;29;20056;-84
2022/08/07 06:06:33;;;;;;;3.55;2.60;;;14.60;1.00;;;;;;4935532;29;20091;-83
2022/08/07 06:09:21;;;;;;;7.18;2.53;;;14.80;1.00;;;;;;4936678;29;20071;-83
2022/08/07 06:12:29;;;;;;;11.15;2.35;;;14.90;1.00;;;;;;4930638;29;20531;-91
2022/08/07 06:15:21;;;;;;;7.22;3.13;;;15.00;1.00;;;;;;4938416;29;20051;-85
2022/08/07 06:18:26;;;;;;;2.58;1.88;;;15.20;1.00;;;;;;4936099;29;20058;-85
2022/08/07 06:21:16;;;;;;;5.75;3.65;;;15.30;1.00;;;;;;4940608;29;20063;-88
2022/08/07 06:24:23;;;;;;;4.97;3.55;;;15.40;1.00;;;;;;4938749;29;20048;-85
2022/08/07 06:27:30;;;;;;;5.70;3.67;;;15.40;1.00;;;;;;4933342;29;20067;-85
2022/08/07 06:30:38;;;;;;;7.78;3.60;;;15.50;1.00;;;;;;4937202;29;20055;-85
2022/08/07 06:33:32;;;;;;;5.35;4.40;;;15.60;1.00;;;;;;4932821;29;20332;-83
2022/08/07 06:36:21;;;;;;;4.53;3.90;;;15.70;1.00;;;;;;4934643;29;20056;-83
2022/08/07 06:39:21;;;;;;;5.03;3.95;;;15.90;1.00;;;;;;4934849;29;20394;-82
2022/08/07 06:42:36;;;;;;;7.35;4.00;;;16.20;1.00;;;;;;4929636;29;20052;-85
2022/08/07 06:45:24;;;;;;;8.32;4.45;;;16.40;1.00;;;;;;4930133;29;20101;-86
2022/08/07 06:48:11;;;;;;;4.80;3.97;;;16.60;1.00;;;;;;4931886;29;20087;-85
2022/08/07 06:51:07;;;;;;;5.20;4.68;;;16.90;1.00;;;;;;4932787;29;20044;-84
2022/08/07 06:54:03;;;;;;;7.03;4.88;;;17.20;1.00;;;;;;4932661;29;20374;-84
2022/08/07 06:57:15;;;;;;;12.85;5.28;;;17.00;1.00;;;;;;4934445;29;20066;-85
2022/08/07 07:00:18;;;;;;;6.90;4.53;;;17.30;1.00;;;;;;4912870;29;20098;-85
2022/08/07 07:03:13;;;;;;;7.05;4.32;;;17.50;1.00;;;;;;4937362;29;20512;-85
2022/08/07 07:06:06;;;;;;;6.68;4.00;;;18.00;1.00;;;;;;4937158;29;20187;-85
2022/08/07 07:13:32;;;;;;;5.22;3.78;;;18.60;1.00;;;;;;4811062;29;20278;-86
2022/08/07 07:16:44;;;;;;;5.95;4.30;;;19.10;1.00;;;;;;4822169;29;20064;-85
2022/08/07 07:19:59;;;;;;;4.03;3.38;;;19.40;1.00;;;;;;4856312;29;20248;-85
2022/08/07 07:22:49;;;;;;;4.00;3.50;;;19.90;1.00;;;;;;4876961;29;20053;-86
2022/08/07 07:26:04;;;;;;;3.97;3.53;;;20.00;1.00;;;;;;4905631;29;20122;-87
2022/08/07 07:29:31;;;;;;;7.13;3.20;;;20.10;1.00;;;;;;4935175;29;20071;-87
2022/08/07 07:32:41;;;;;;;4.78;2.90;;;20.40;1.00;;;;;;4924101;29;20048;-87
2022/08/07 07:36:25;;;;;;;3.25;2.95;;;20.80;1.00;;;;;;4926248;29;20044;-86
2022/08/07 07:39:23;;;;;;;3.80;2.85;;;20.80;1.00;;;;;;4934557;29;20067;-84
2022/08/07 07:42:17;;;;;;;4.95;3.28;;;21.50;1.00;;;;;;4928735;29;20067;-83
2022/08/07 07:45:08;;;;;;;4.90;2.50;;;21.80;1.00;;;;;;4935483;29;20059;-83
2022/08/07 07:47:58;;;;;;;7.88;2.90;;;22.00;1.00;;;;;;4939644;29;20454;-84
2022/08/07 07:50:47;;;;;;;4.25;2.50;;;21.90;1.00;;;;;;4928647;29;20051;-84
2022/08/07 07:53:42;;;;;;;3.10;1.85;;;21.90;1.00;;;;;;4932199;29;20075;-85
2022/08/07 07:56:39;;;;;;;3.25;2.20;;;22.40;1.00;;;;;;4931362;29;20047;-85
2022/08/07 07:59:30;;;;;;;3.80;1.73;;;22.50;1.00;;;;;;4929497;29;20044;-85
2022/08/07 08:02:40;;;;;;;3.40;2.00;;;23.10;1.00;;;;;;4935639;29;20040;-83
2022/08/07 08:05:48;;;;;;;2.78;1.80;;;23.20;1.00;;;;;;4929522;29;20450;-83
2022/08/07 08:08:42;;;;;;;6.82;1.60;;;23.10;1.00;;;;;;4936407;29;20179;-87
2022/08/07 08:11:33;;;;;;;2.17;1.73;;;23.30;1.00;;;;;;4937072;29;20054;-83
2022/08/07 08:14:42;;;;;;;1.95;1.35;;;23.50;1.00;;;;;;4929095;29;20134;-83
2022/08/07 08:17:34;;;;;;;1.98;1.60;;;23.70;1.00;;;;;;4943809;29;20498;-85
2022/08/07 08:20:42;;;;;;;4.28;1.85;;;24.00;1.00;;;;;;4927534;29;20131;-83
2022/08/07 08:29:56;;;;;;;4.55;1.30;;;23.90;1.00;;;;;;4937906;28;20473;-85
2022/08/07 08:32:55;;;;;;;2.00;1.00;;;24.30;1.00;;;;;;4925212;29;20156;-86
2022/08/07 08:35:48;;;;;;;2.63;0.98;;;24.60;1.00;;;;;;4937657;29;20363;-85
2022/08/07 08:38:43;;;;;;;0.85;0.80;;;24.50;1.00;;;;;;4937519;29;20480;-84
2022/08/07 08:41:57;;;;;;;1.27;1.10;;;24.90;1.00;;;;;;4925870;29;20048;-89
2022/08/07 08:45:01;;;;;;;1.15;1.00;;;24.10;1.00;;;;;;4941113;29;20123;-86
2022/08/07 08:48:07;;;;;;;4.68;0.80;;;24.80;1.00;;;;;;4931480;29;20070;-87
2022/08/07 08:51:06;;;;;;;1.40;0.90;;;25.00;1.00;;;;;;4944812;29;20047;-87
2022/08/07 08:54:19;;;;;;;2.53;0.85;;;25.00;1.00;;;;;;4937880;29;20127;-85
2022/08/07 08:57:44;;;;;;;1.75;0.70;;;24.80;1.00;;;;;;4936709;29;20074;-85
2022/08/07 09:00:40;;;;;;;1.92;0.90;;;24.40;1.00;;;;;;4929200;29;20727;-84
2022/08/07 09:03:55;;;;;;;1.38;0.85;;;24.90;1.00;;;;;;4935062;29;20058;-85
2022/08/07 09:07:12;;;;;;;2.38;0.90;;;24.80;1.00;;;;;;4936657;29;20047;-86
2022/08/07 09:10:30;;;;;;;3.50;0.98;;;24.50;1.00;;;;;;4925856;29;20362;-86
2022/08/07 09:13:31;;;;;;;1.17;0.60;;;25.20;1.00;;;;;;4931622;29;20056;-85
2022/08/07 09:16:36;;;;;;;1.15;0.90;;;25.30;99.90;;;;;;4940724;29;20331;-83
2022/08/07 09:20:06;;;;;;;1.20;0.90;;;25.40;99.90;;;;;;4934882;29;20114;-85
2022/08/07 09:23:26;;;;;;;4.75;1.02;;;25.70;99.90;;;;;;4923930;29;20152;-86
2022/08/07 09:27:14;;;;;;;2.08;0.85;;;25.60;99.90;;;;;;4929163;29;20501;-88
2022/08/07 09:30:08;;;;;;;3.35;0.85;;;26.00;99.90;;;;;;4910589;29;20079;-87
2022/08/07 09:33:01;;;;;;;;;;;26.40;99.90;;;;;;4928095;29;20437;-85
2022/08/07 09:36:01;;;;;;;1.45;0.85;;;26.60;99.90;;;;;;4937795;29;19956;-84
2022/08/07 09:39:15;;;;;;;2.78;0.93;;;26.90;99.90;;;;;;4925422;29;20095;-83
2022/08/07 09:42:50;;;;;;;4.45;0.90;;;27.10;99.90;;;;;;4927344;29;20569;-84
2022/08/07 09:45:54;;;;;;;2.58;0.73;;;26.90;99.90;;;;;;4924232;29;20055;-85
2022/08/07 09:49:38;;;;;;;3.00;0.95;;;27.40;99.90;;;;;;4929437;29;20552;-86
2022/08/07 09:53:05;;;;;;;2.95;0.73;;;27.90;99.90;;;;;;4926453;29;20186;-85
2022/08/07 09:55:59;;;;;;;1.85;0.90;;;27.60;99.90;;;;;;4927052;29;20047;-85
2022/08/07 09:59:06;;;;;;;1.17;0.60;;;28.20;99.90;;;;;;4917405;29;20059;-84
2022/08/07 10:02:15;;;;;;;1.17;0.82;;;28.50;99.90;;;;;;4928864;29;20058;-86
2022/08/07 10:05:19;;;;;;;1.48;0.90;;;29.00;99.90;;;;;;4944158;29;20297;-84
2022/08/07 10:08:40;;;;;;;2.10;0.60;;;28.80;99.90;;;;;;4926462;29;20168;-83
2022/08/07 10:12:07;;;;;;;1.70;0.50;;;28.70;99.90;;;;;;4935940;29;20052;-83
2022/08/07 10:15:07;;;;;;;1.23;0.50;;;28.30;99.90;;;;;;4934823;29;20063;-85
2022/08/07 10:18:39;;;;;;;1.58;0.63;;;28.20;99.90;;;;;;4933605;29;20043;-86
2022/08/07 10:21:45;;;;;;;0.50;0.50;;;28.20;99.90;;;;;;4908123;29;20048;-85
2022/08/07 10:25:27;;;;;;;2.70;0.50;;;28.90;99.90;;;;;;4932501;29;20080;-86
2022/08/07 10:28:49;;;;;;;0.90;0.43;;;28.70;99.90;;;;;;4931764;29;20146;-84
2022/08/07 10:32:09;;;;;;;2.53;0.80;;;29.20;99.90;;;;;;4921501;29;20485;-84
2022/08/07 10:35:44;;;;;;;1.48;0.52;;;29.10;99.90;;;;;;4931883;29;20183;-85
2022/08/07 10:38:58;;;;;;;1.15;0.70;;;29.20;99.90;;;;;;4935194;29;20499;-84
2022/08/07 10:42:07;;;;;;;0.70;0.50;;;29.40;99.90;;;;;;4925079;29;20414;-84
2022/08/07 10:45:13;;;;;;;0.93;0.60;;;29.70;99.90;;;;;;4938903;29;20476;-87
2022/08/07 10:48:06;;;;;;;2.47;0.47;;;29.20;99.90;;;;;;4937663;29;20071;-87
2022/08/07 10:51:01;;;;;;;1.30;0.50;;;28.90;99.90;;;;;;4932798;29;20047;-85
2022/08/07 10:54:14;;;;;;;0.98;0.43;;;29.00;99.90;;;;;;4939897;29;20048;-82
2022/08/07 10:57:14;;;;;;;2.47;0.52;;;29.60;99.90;;;;;;4936194;29;20044;-83
2022/08/07 11:00:15;;;;;;;1.15;0.43;;;30.00;99.90;;;;;;4927845;29;20063;-82
2022/08/07 11:03:41;;;;;;;0.93;0.38;;;29.40;99.90;;;;;;4936169;29;20127;-85
2022/08/07 11:07:07;;;;;;;1.67;0.50;;;29.20;99.90;;;;;;4938133;29;20119;-85
2022/08/07 11:10:35;;;;;;;1.13;0.52;;;29.40;99.90;;;;;;4945857;29;20136;-86
2022/08/07 11:13:31;;;;;;;0.80;0.43;;;28.50;99.90;;;;;;4937665;29;20059;-83
2022/08/07 11:16:53;;;;;;;1.30;0.40;;;29.40;99.90;;;;;;4935107;29;20123;-84
2022/08/07 11:19:57;;;;;;;1.52;0.50;;;30.00;99.90;;;;;;4937065;29;20154;-84
2022/08/07 11:23:24;;;;;;;0.77;0.35;;;29.90;99.90;;;;;;4925640;29;20469;-83
2022/08/07 11:26:32;;;;;;;1.92;0.50;;;29.50;99.90;;;;;;4936219;29;20040;-84
2022/08/07 11:29:39;;;;;;;1.27;0.60;;;30.10;99.90;;;;;;4936814;29;20079;-86
2022/08/07 11:32:38;;;;;;;1.73;0.57;;;30.70;99.90;;;;;;4935525;29;20051;-86
2022/08/07 11:35:45;;;;;;;0.70;0.43;;;30.10;99.90;;;;;;4934419;29;20054;-84
2022/08/07 11:39:12;;;;;;;3.80;1.05;;;30.90;99.90;;;;;;4926180;29;20056;-86
2022/08/07 11:42:35;;;;;;;1.77;0.47;;;30.60;99.90;;;;;;4925184;29;20063;-84
2022/08/07 11:45:43;;;;;;;2.00;0.50;;;30.20;99.90;;;;;;4927678;29;20118;-84
2022/08/07 11:49:04;;;;;;;2.50;0.50;;;30.70;99.90;;;;;;4927808;29;20270;-85
2022/08/07 11:52:12;;;;;;;;;;;31.60;99.90;;;;;;4929664;29;20036;-87
2022/08/07 11:55:28;;;;;;;1.75;0.40;;;32.50;99.90;;;;;;4936146;29;20352;-85
2022/08/07 11:59:03;;;;;;;1.80;0.40;;;32.60;99.90;;;;;;4925164;29;20147;-86
2022/08/07 12:02:23;;;;;;;1.45;0.60;;;32.70;99.90;;;;;;4935033;29;20040;-85
2022/08/07 12:06:05;;;;;;;1.23;0.50;;;32.50;99.90;;;;;;4932847;29;20050;-87
2022/08/07 12:09:23;;;;;;;0.70;0.35;;;31.90;99.90;;;;;;4934599;29;20453;-87
2022/08/07 12:12:37;;;;;;;0.60;0.50;;;32.20;99.90;;;;;;4934709;29;20173;-87
2022/08/07 12:15:34;;;;;;;4.82;2.45;;;31.80;99.90;;;;;;4931873;29;20039;-87
2022/08/07 12:18:54;;;;;;;2.35;1.02;;;32.30;99.90;;;;;;4925131;29;20051;-86
2022/08/07 12:22:16;;;;;;;1.25;1.15;;;32.00;99.90;;;;;;4935871;29;20043;-87
2022/08/07 12:25:56;;;;;;;21.98;17.00;;;32.50;99.90;;;;;;4927622;29;20048;-86
2022/08/07 12:29:06;;;;;;;6.57;4.78;;;32.90;99.90;;;;;;4932889;29;20099;-90
2022/08/07 12:32:13;;;;;;;8.45;7.50;;;33.30;99.90;;;;;;4934169;29;20472;-88
2022/08/07 12:35:08;;;;;;;5.45;2.92;;;32.60;99.90;;;;;;4927177;29;20062;-85
2022/08/07 12:41:54;;;;;;;7.30;6.10;;;31.60;99.90;;;;;;4934029;29;20035;-86
2022/08/07 12:44:48;;;;;;;5.72;5.03;;;32.20;99.90;;;;;;4933708;29;20111;-86
2022/08/07 12:47:46;;;;;;;1.30;0.63;;;32.70;99.90;;;;;;4936961;29;20052;-86
2022/08/07 12:50:53;;;;;;;1.20;0.70;;;32.10;99.90;;;;;;4934536;29;20039;-87
2022/08/07 12:54:15;;;;;;;1.13;0.52;;;31.70;99.90;;;;;;4935009;29;20106;-85
2022/08/07 12:57:29;;;;;;;3.28;0.70;;;31.40;99.90;;;;;;4920739;29;20036;-87
2022/08/07 13:00:45;;;;;;;0.73;0.60;;;32.00;99.90;;;;;;4934591;29;20052;-89
2022/08/07 13:04:13;;;;;;;1.85;0.50;;;32.40;99.90;;;;;;4934708;29;20183;-87
2022/08/07 13:08:00;;;;;;;10.00;0.90;;;32.70;99.90;;;;;;4928865;29;20109;-86
2022/08/07 13:11:30;;;;;;;1.27;0.70;;;33.10;99.90;;;;;;4937148;29;20438;-86
2022/08/07 13:14:58;;;;;;;;;;;32.80;99.90;;;;;;4942925;29;20071;-86
2022/08/07 13:17:56;;;;;;;0.30;0.30;;;34.10;99.90;;;;;;4936969;29;19927;-85
2022/08/07 13:20:51;;;;;;;1.13;0.60;;;34.70;99.90;;;;;;4935170;29;20052;-86
2022/08/07 13:23:50;;;;;;;1.20;0.50;;;34.60;99.90;;;;;;4935716;29;20059;-90
2022/08/07 13:27:13;;;;;;;1.40;0.52;;;35.90;99.90;;;;;;4926864;29;20052;-85
2022/08/07 13:30:14;;;;;;;2.00;0.52;;;34.00;99.90;;;;;;4929674;29;20048;-86
2022/08/07 13:33:34;;;;;;;0.70;0.60;;;33.20;99.90;;;;;;4928041;29;20484;-89
2022/08/07 13:36:50;;;;;;;1.63;0.60;;;33.50;99.90;;;;;;4927851;29;20067;-84
2022/08/07 13:40:05;;;;;;;1.63;0.50;;;32.90;99.90;;;;;;4931720;29;20126;-84
2022/08/07 13:43:17;;;;;;;1.20;0.68;;;33.40;99.90;;;;;;4923866;29;20411;-85
2022/08/07 13:46:15;;;;;;;0.57;0.57;;;34.60;99.90;;;;;;4929077;29;20059;-84
2022/08/07 13:49:17;;;;;;;0.90;0.47;;;35.10;99.90;;;;;;4928370;29;20059;-86
2022/08/07 13:52:26;;;;;;;2.17;0.50;;;35.40;99.90;;;;;;4937633;29;20044;-86
2022/08/07 13:55:21;;;;;;;1.05;0.55;;;34.50;99.90;;;;;;4935301;29;20062;-89
2022/08/07 14:01:48;;;;;;;0.52;0.50;;;32.60;99.90;;;;;;4931669;29;20442;-84
2022/08/07 14:04:49;;;;;;;2.92;0.50;;;33.50;99.90;;;;;;4935738;29;20055;-82
2022/08/07 14:07:44;;;;;;;1.13;0.68;;;34.00;99.90;;;;;;4938174;29;20179;-86
2022/08/07 14:10:51;;;;;;;1.55;0.77;;;34.20;99.90;;;;;;4929466;29;20055;-85
2022/08/07 14:14:02;;;;;;;5.72;0.65;;;34.10;99.90;;;;;;4939983;29;20478;-83
2022/08/07 14:17:02;;;;;;;1.40;0.60;;;33.90;99.90;;;;;;4934982;29;20067;-83
2022/08/07 14:20:26;;;;;;;1.90;0.70;;;33.80;99.90;;;;;;4934273;29;20130;-84
2022/08/07 14:23:36;;;;;;;0.65;0.60;;;34.60;99.90;;;;;;4936128;29;20088;-86
2022/08/07 14:26:53;;;;;;;1.00;0.65;;;34.10;99.90;;;;;;4932027;29;20154;-86
2022/08/07 14:29:53;;;;;;;1.15;0.65;;;33.70;99.90;;;;;;4937441;29;20055;-84
2022/08/07 14:33:03;;;;;;;1.10;0.70;;;33.40;99.90;;;;;;4933268;29;20058;-84
2022/08/07 14:35:58;;;;;;;2.00;0.80;;;33.70;99.90;;;;;;4930605;29;20058;-84
2022/08/07 14:38:51;;;;;;;0.70;0.57;;;33.10;99.90;;;;;;4930825;29;20048;-83
2022/08/07 14:41:41;;;;;;;1.60;0.90;;;32.70;99.90;;;;;;4938307;29;20066;-88
2022/08/07 14:44:53;;;;;;;5.00;0.68;;;33.00;99.90;;;;;;4930404;29;20040;-84
2022/08/07 14:47:50;;;;;;;1.20;0.60;;;32.80;99.90;;;;;;4920254;29;20058;-86
2022/08/07 14:50:51;;;;;;;0.68;0.68;;;32.50;99.90;;;;;;4936120;29;20130;-85
2022/08/07 14:53:43;;;;;;;0.88;0.50;;;31.90;99.90;;;;;;4934201;29;20054;-86
2022/08/07 14:56:52;;;;;;;0.80;0.63;;;32.90;99.90;;;;;;4936580;29;20142;-84
2022/08/07 14:59:46;;;;;;;1.05;0.50;;;33.40;99.90;;;;;;4935834;29;20055;-85
2022/08/07 15:02:57;;;;;;;1.25;0.70;;;33.30;99.90;;;;;;4930198;29;20131;-83
2022/08/07 15:05:47;;;;;;;3.58;0.60;;;33.40;99.90;;;;;;4930597;29;20434;-86
2022/08/07 15:08:53;;;;;;;2.58;0.80;;;32.50;99.90;;;;;;4931217;29;20150;-86
2022/08/07 15:11:43;;;;;;;;;;;31.80;99.90;;;;;;4938014;29;20071;-88
2022/08/07 15:14:50;;;;;;;1.17;0.60;;;32.80;99.90;;;;;;4936623;29;19926;-84
2022/08/07 15:17:53;;;;;;;1.30;0.68;;;32.00;99.90;;;;;;4937785;29;20052;-85
2022/08/07 15:20:44;;;;;;;0.95;0.70;;;31.60;99.90;;;;;;4933943;29;20547;-85
2022/08/07 15:23:59;;;;;;;1.05;0.80;;;31.30;99.90;;;;;;4935428;29;20047;-87
2022/08/07 15:27:29;;;;;;;4.68;0.90;;;32.50;99.90;;;;;;4929421;29;20063;-84
2022/08/07 15:30:22;;;;;;;2.42;0.65;;;32.30;99.90;;;;;;4936177;29;20139;-83
2022/08/07 15:33:17;;;;;;;1.85;0.80;;;32.80;99.90;;;;;;4937995;29;20066;-87
2022/08/07 15:36:11;;;;;;;0.70;0.70;;;32.30;99.90;;;;;;4935749;29;20051;-84
2022/08/07 15:39:05;;;;;;;1.17;0.80;;;32.30;99.90;;;;;;4946111;29;20149;-88
2022/08/07 15:42:03;;;;;;;3.95;1.05;;;32.80;99.90;;;;;;4930688;29;20111;-83
2022/08/07 15:45:33;;;;;;;1.42;0.80;;;33.10;99.90;;;;;;4926697;29;20154;-86
2022/08/07 15:48:43;;;;;;;1.17;0.63;;;32.70;99.90;;;;;;4932333;29;20386;-84
2022/08/07 15:51:52;;;;;;;0.93;0.68;;;31.70;99.90;;;;;;4946679;29;20105;-86
2022/08/07 15:54:48;;;;;;;0.95;0.80;;;30.60;99.90;;;;;;4939505;29;20047;-85
2022/08/07 15:57:36;;;;;;;1.67;0.95;;;30.30;99.90;;;;;;4933329;29;20366;-84
2022/08/07 16:00:40;;;;;;;4.05;2.35;;;29.90;99.90;;;;;;4927762;29;20043;-85
2022/08/07 16:03:36;;;;;;;0.70;0.70;;;30.20;99.90;;;;;;4933466;29;20036;-84
2022/08/07 16:06:55;;;;;;;1.42;0.70;;;30.40;99.90;;;;;;4932619;29;20051;-85
2022/08/07 16:09:51;;;;;;;1.75;0.80;;;30.60;99.90;;;;;;4937488;29;20147;-85
2022/08/07 16:12:49;;;;;;;1.05;0.70;;;30.20;99.90;;;;;;4933962;29;20072;-86
2022/08/07 16:16:46;;;;;;;2.35;0.60;;;30.10;99.90;;;;;;4930122;29;20067;-83
2022/08/07 16:20:13;;;;;;;0.85;0.65;;;29.30;99.90;;;;;;4923961;29;20123;-88